This is the latest recevied weather packets stored in our database for station/object K1WJY. If no packets are shown the sender has not sent any weather packets the latest 10 day(s).
| Time | Temp. | Humidity | Pressure | Rain* | Wind** | Luminosity | Snow |
|---|---|---|---|---|---|---|---|
| 1787857791 | 25° C | 76% | 1019.9 hPa | 0 mm | - | 318 W/m² | - |
| 1787857487 | 25° C | 75% | 1020.1 hPa | 0 mm | - | 374 W/m² | - |
| 1787857184 | 25.56° C | 76% | 1020.2 hPa | 0 mm | - | 453 W/m² | - |
| 1787856880 | 26.11° C | 72% | 1019.8 hPa | 0 mm | - | 486 W/m² | - |
| 1787856579 | 25.56° C | 74% | 1020.1 hPa | 0 mm | - | 633 W/m² | - |
| 1787856275 | 24.44° C | 77% | 1020.2 hPa | 0 mm | - | 493 W/m² | - |
| 1787855971 | 24.44° C | 77% | 1020 hPa | 0 mm | - | 203 W/m² | - |
| 1787855670 | 25° C | 74% | 1020.1 hPa | 0 mm | - | 194 W/m² | - |
| 1787855365 | 25.56° C | 74% | 1020.3 hPa | 0 mm | - | 175 W/m² | - |
| 1787855060 | 25° C | 75% | 1020.3 hPa | 0 mm | - | 279 W/m² | - |
| 1787854756 | 25.56° C | 75% | 1020.1 hPa | 0 mm | - | 222 W/m² | - |
| 1787854455 | 25° C | 78% | 1020.4 hPa | 0 mm | - | 187 W/m² | - |
| 1787854150 | 24.44° C | 79% | 1020.2 hPa | 0 mm | - | 383 W/m² | - |
| 1787853851 | 25° C | 78% | 1020.3 hPa | 0 mm | - | 160 W/m² | - |
| 1787853548 | 25° C | 77% | 1020.4 hPa | 0 mm | - | 406 W/m² | - |
| 1787853244 | 25° C | 77% | 1020.3 hPa | 0 mm | - | 718 W/m² | - |
| 1787852943 | 24.44° C | 79% | 1020.3 hPa | 0 mm | - | 741 W/m² | - |
| 1787852638 | 24.44° C | 80% | 1020.5 hPa | 0 mm | - | 751 W/m² | - |
| 1787852337 | 23.89° C | 80% | 1020.6 hPa | 0 mm | - | 805 W/m² | - |
| 1787852037 | 23.33° C | 83% | 1020.5 hPa | 0 mm | - | 745 W/m² | - |
| 1787851736 | 23.89° C | 82% | 1020.7 hPa | 0 mm | - | 207 W/m² | - |
| 1787851431 | 24.44° C | 80% | 1020.7 hPa | 0 mm | - | 252 W/m² | - |
| 1787851126 | 24.44° C | 80% | 1020.7 hPa | 0 mm | - | 693 W/m² | - |
| 1787850822 | 24.44° C | 80% | 1020.6 hPa | 0 mm | - | 192 W/m² | - |
| 1787850518 | 23.89° C | 81% | 1020.6 hPa | 0 mm | - | 756 W/m² | - |
* Rain latest hour (hover to see other rain measurements)
** Current wind speed in m/s (hover to see current wind gust speed)